sensor_id;sensor_type;location;lat;lon;timestamp;P1;P2;P0
43393;PMS5003;62479;62.642;17.954;2022-11-20T00:01:07;7;7;
43393;PMS5003;62479;62.642;17.954;2022-11-20T00:03:38;6;6;
43393;PMS5003;62479;62.642;17.954;2022-11-20T00:06:08;6;4;
43393;PMS5003;62479;62.642;17.954;2022-11-20T00:08:38;7;4;
43393;PMS5003;62479;62.642;17.954;2022-11-20T00:11:09;7;6;
43393;PMS5003;62479;62.642;17.954;2022-11-20T00:13:40;4;4;
43393;PMS5003;62479;62.642;17.954;2022-11-20T00:16:10;7;6;
43393;PMS5003;62479;62.642;17.954;2022-11-20T00:18:39;3;3;
43393;PMS5003;62479;62.642;17.954;2022-11-20T00:21:10;4;4;
43393;PMS5003;62479;62.642;17.954;2022-11-20T00:23:40;7;5;
43393;PMS5003;62479;62.642;17.954;2022-11-20T00:26:10;6;6;
43393;PMS5003;62479;62.642;17.954;2022-11-20T00:28:40;3;3;
43393;PMS5003;62479;62.642;17.954;2022-11-20T00:31:10;6;4;
43393;PMS5003;62479;62.642;17.954;2022-11-20T00:33:41;6;4;
43393;PMS5003;62479;62.642;17.954;2022-11-20T00:36:10;3;2;
43393;PMS5003;62479;62.642;17.954;2022-11-20T00:38:41;4;4;
43393;PMS5003;62479;62.642;17.954;2022-11-20T00:41:11;3;3;
43393;PMS5003;62479;62.642;17.954;2022-11-20T00:43:41;3;3;
43393;PMS5003;62479;62.642;17.954;2022-11-20T00:46:12;6;6;
43393;PMS5003;62479;62.642;17.954;2022-11-20T00:48:42;4;3;
43393;PMS5003;62479;62.642;17.954;2022-11-20T00:51:12;4;3;
43393;PMS5003;62479;62.642;17.954;2022-11-20T00:53:43;3;2;
43393;PMS5003;62479;62.642;17.954;2022-11-20T00:56:14;3;3;
43393;PMS5003;62479;62.642;17.954;2022-11-20T00:58:44;2;1;
43393;PMS5003;62479;62.642;17.954;2022-11-20T01:01:16;4;3;
43393;PMS5003;62479;62.642;17.954;2022-11-20T01:03:51;2;2;
43393;PMS5003;62479;62.642;17.954;2022-11-20T01:06:21;3;3;
43393;PMS5003;62479;62.642;17.954;2022-11-20T01:08:53;1;1;
43393;PMS5003;62479;62.642;17.954;2022-11-20T01:11:24;1;1;
43393;PMS5003;62479;62.642;17.954;2022-11-20T01:13:55;2;2;
43393;PMS5003;62479;62.642;17.954;2022-11-20T01:16:28;3;2;
43393;PMS5003;62479;62.642;17.954;2022-11-20T01:18:59;2;2;
43393;PMS5003;62479;62.642;17.954;2022-11-20T01:21:30;4;3;
43393;PMS5003;62479;62.642;17.954;2022-11-20T01:24:00;3;2;
43393;PMS5003;62479;62.642;17.954;2022-11-20T01:26:31;3;2;
43393;PMS5003;62479;62.642;17.954;2022-11-20T01:29:02;3;2;
43393;PMS5003;62479;62.642;17.954;2022-11-20T01:31:33;1;1;
43393;PMS5003;62479;62.642;17.954;2022-11-20T01:34:04;3;2;
43393;PMS5003;62479;62.642;17.954;2022-11-20T01:36:34;6;3;
43393;PMS5003;62479;62.642;17.954;2022-11-20T01:39:07;1;1;
43393;PMS5003;62479;62.642;17.954;2022-11-20T01:41:40;2;2;
43393;PMS5003;62479;62.642;17.954;2022-11-20T01:44:09;2;2;
43393;PMS5003;62479;62.642;17.954;2022-11-20T01:46:42;2;2;
43393;PMS5003;62479;62.642;17.954;2022-11-20T01:49:21;1;1;
43393;PMS5003;62479;62.642;17.954;2022-11-20T01:51:55;2;2;
43393;PMS5003;62479;62.642;17.954;2022-11-20T01:54:29;3;3;
43393;PMS5003;62479;62.642;17.954;2022-11-20T01:57:04;1;1;
43393;PMS5003;62479;62.642;17.954;2022-11-20T01:59:36;2;2;
43393;PMS5003;62479;62.642;17.954;2022-11-20T02:02:11;2;2;
43393;PMS5003;62479;62.642;17.954;2022-11-20T02:04:41;2;1;
43393;PMS5003;62479;62.642;17.954;2022-11-20T02:07:12;0;0;
43393;PMS5003;62479;62.642;17.954;2022-11-20T02:09:41;2;2;
43393;PMS5003;62479;62.642;17.954;2022-11-20T02:12:11;1;1;
43393;PMS5003;62479;62.642;17.954;2022-11-20T02:14:40;1;1;
43393;PMS5003;62479;62.642;17.954;2022-11-20T02:17:09;1;1;
43393;PMS5003;62479;62.642;17.954;2022-11-20T02:19:38;1;1;
43393;PMS5003;62479;62.642;17.954;2022-11-20T02:22:14;1;1;
43393;PMS5003;62479;62.642;17.954;2022-11-20T02:24:50;2;2;
43393;PMS5003;62479;62.642;17.954;2022-11-20T02:27:19;1;1;
43393;PMS5003;62479;62.642;17.954;2022-11-20T02:29:49;0;0;
43393;PMS5003;62479;62.642;17.954;2022-11-20T02:32:22;1;1;
43393;PMS5003;62479;62.642;17.954;2022-11-20T02:34:54;0;0;
43393;PMS5003;62479;62.642;17.954;2022-11-20T02:37:23;1;0;
43393;PMS5003;62479;62.642;17.954;2022-11-20T02:39:59;1;1;
43393;PMS5003;62479;62.642;17.954;2022-11-20T02:42:28;1;1;
43393;PMS5003;62479;62.642;17.954;2022-11-20T02:44:57;0;0;
43393;PMS5003;62479;62.642;17.954;2022-11-20T02:47:26;1;1;
43393;PMS5003;62479;62.642;17.954;2022-11-20T02:49:55;0;0;
43393;PMS5003;62479;62.642;17.954;2022-11-20T02:52:25;1;1;
43393;PMS5003;62479;62.642;17.954;2022-11-20T02:54:55;1;0;
43393;PMS5003;62479;62.642;17.954;2022-11-20T02:57:25;2;0;
43393;PMS5003;62479;62.642;17.954;2022-11-20T03:00:00;1;1;
43393;PMS5003;62479;62.642;17.954;2022-11-20T03:02:29;3;2;
43393;PMS5003;62479;62.642;17.954;2022-11-20T03:04:59;1;0;
43393;PMS5003;62479;62.642;17.954;2022-11-20T03:07:29;0;0;
43393;PMS5003;62479;62.642;17.954;2022-11-20T03:09:58;0;0;
43393;PMS5003;62479;62.642;17.954;2022-11-20T03:12:27;0;0;
43393;PMS5003;62479;62.642;17.954;2022-11-20T03:14:56;0;0;
43393;PMS5003;62479;62.642;17.954;2022-11-20T03:17:25;2;2;
43393;PMS5003;62479;62.642;17.954;2022-11-20T03:19:54;0;0;
43393;PMS5003;62479;62.642;17.954;2022-11-20T03:22:24;0;0;
43393;PMS5003;62479;62.642;17.954;2022-11-20T03:24:53;2;1;
43393;PMS5003;62479;62.642;17.954;2022-11-20T03:27:22;1;1;
43393;PMS5003;62479;62.642;17.954;2022-11-20T03:29:56;0;0;
43393;PMS5003;62479;62.642;17.954;2022-11-20T03:32:26;2;2;
43393;PMS5003;62479;62.642;17.954;2022-11-20T03:34:54;1;1;
43393;PMS5003;62479;62.642;17.954;2022-11-20T03:37:23;1;1;
43393;PMS5003;62479;62.642;17.954;2022-11-20T03:39:53;1;0;
43393;PMS5003;62479;62.642;17.954;2022-11-20T03:42:22;1;1;
43393;PMS5003;62479;62.642;17.954;2022-11-20T03:44:51;1;0;
43393;PMS5003;62479;62.642;17.954;2022-11-20T03:47:20;0;0;
43393;PMS5003;62479;62.642;17.954;2022-11-20T03:49:49;0;0;
43393;PMS5003;62479;62.642;17.954;2022-11-20T03:52:18;0;0;
43393;PMS5003;62479;62.642;17.954;2022-11-20T03:54:48;0;0;
43393;PMS5003;62479;62.642;17.954;2022-11-20T03:57:17;1;1;
43393;PMS5003;62479;62.642;17.954;2022-11-20T03:59:46;0;0;
43393;PMS5003;62479;62.642;17.954;2022-11-20T04:02:15;0;0;
43393;PMS5003;62479;62.642;17.954;2022-11-20T04:04:44;1;0;
43393;PMS5003;62479;62.642;17.954;2022-11-20T04:07:13;1;1;
43393;PMS5003;62479;62.642;17.954;2022-11-20T04:09:43;2;1;
43393;PMS5003;62479;62.642;17.954;2022-11-20T04:12:12;1;1;
43393;PMS5003;62479;62.642;17.954;2022-11-20T04:14:41;0;0;
43393;PMS5003;62479;62.642;17.954;2022-11-20T04:17:10;0;0;
43393;PMS5003;62479;62.642;17.954;2022-11-20T04:19:39;1;1;
43393;PMS5003;62479;62.642;17.954;2022-11-20T04:22:08;1;1;
43393;PMS5003;62479;62.642;17.954;2022-11-20T04:24:38;5;2;
43393;PMS5003;62479;62.642;17.954;2022-11-20T04:27:07;2;1;
43393;PMS5003;62479;62.642;17.954;2022-11-20T04:29:36;1;1;
43393;PMS5003;62479;62.642;17.954;2022-11-20T04:32:05;1;1;
43393;PMS5003;62479;62.642;17.954;2022-11-20T04:34:34;1;1;
43393;PMS5003;62479;62.642;17.954;2022-11-20T04:37:04;0;0;
43393;PMS5003;62479;62.642;17.954;2022-11-20T04:39:33;0;0;
43393;PMS5003;62479;62.642;17.954;2022-11-20T04:42:02;0;0;
43393;PMS5003;62479;62.642;17.954;2022-11-20T04:44:31;1;1;
43393;PMS5003;62479;62.642;17.954;2022-11-20T04:47:00;0;0;
43393;PMS5003;62479;62.642;17.954;2022-11-20T04:49:30;1;0;
43393;PMS5003;62479;62.642;17.954;2022-11-20T04:52:00;0;0;
43393;PMS5003;62479;62.642;17.954;2022-11-20T04:54:30;0;0;
43393;PMS5003;62479;62.642;17.954;2022-11-20T04:56:59;0;0;
43393;PMS5003;62479;62.642;17.954;2022-11-20T04:59:28;0;0;
43393;PMS5003;62479;62.642;17.954;2022-11-20T05:03:25;0;0;
43393;PMS5003;62479;62.642;17.954;2022-11-20T05:05:54;1;1;
43393;PMS5003;62479;62.642;17.954;2022-11-20T05:08:24;1;1;
43393;PMS5003;62479;62.642;17.954;2022-11-20T05:10:53;1;0;
43393;PMS5003;62479;62.642;17.954;2022-11-20T05:13:22;1;0;
43393;PMS5003;62479;62.642;17.954;2022-11-20T05:15:51;0;0;
43393;PMS5003;62479;62.642;17.954;2022-11-20T05:18:20;0;0;
43393;PMS5003;62479;62.642;17.954;2022-11-20T05:20:54;0;0;
43393;PMS5003;62479;62.642;17.954;2022-11-20T05:23:22;0;0;
43393;PMS5003;62479;62.642;17.954;2022-11-20T05:25:52;1;1;
43393;PMS5003;62479;62.642;17.954;2022-11-20T05:28:21;0;0;
43393;PMS5003;62479;62.642;17.954;2022-11-20T05:30:50;0;0;
43393;PMS5003;62479;62.642;17.954;2022-11-20T05:33:19;0;0;
43393;PMS5003;62479;62.642;17.954;2022-11-20T05:35:48;1;0;
43393;PMS5003;62479;62.642;17.954;2022-11-20T05:38:17;0;0;
43393;PMS5003;62479;62.642;17.954;2022-11-20T05:40:46;0;0;
43393;PMS5003;62479;62.642;17.954;2022-11-20T05:43:15;0;0;
43393;PMS5003;62479;62.642;17.954;2022-11-20T05:45:51;0;0;
43393;PMS5003;62479;62.642;17.954;2022-11-20T05:48:21;0;0;
43393;PMS5003;62479;62.642;17.954;2022-11-20T05:50:50;0;0;
43393;PMS5003;62479;62.642;17.954;2022-11-20T05:53:20;1;1;
43393;PMS5003;62479;62.642;17.954;2022-11-20T05:55:55;0;0;
43393;PMS5003;62479;62.642;17.954;2022-11-20T05:58:25;0;0;
43393;PMS5003;62479;62.642;17.954;2022-11-20T06:01:02;0;0;
43393;PMS5003;62479;62.642;17.954;2022-11-20T06:03:34;0;0;
43393;PMS5003;62479;62.642;17.954;2022-11-20T06:06:03;0;0;
43393;PMS5003;62479;62.642;17.954;2022-11-20T06:08:34;0;0;
43393;PMS5003;62479;62.642;17.954;2022-11-20T06:11:03;0;0;
43393;PMS5003;62479;62.642;17.954;2022-11-20T06:13:34;0;0;
43393;PMS5003;62479;62.642;17.954;2022-11-20T06:16:03;0;0;
43393;PMS5003;62479;62.642;17.954;2022-11-20T06:18:32;0;0;
43393;PMS5003;62479;62.642;17.954;2022-11-20T06:21:02;0;0;
43393;PMS5003;62479;62.642;17.954;2022-11-20T06:23:39;0;0;
43393;PMS5003;62479;62.642;17.954;2022-11-20T06:26:10;0;0;
43393;PMS5003;62479;62.642;17.954;2022-11-20T06:28:39;0;0;
43393;PMS5003;62479;62.642;17.954;2022-11-20T06:31:10;0;0;
43393;PMS5003;62479;62.642;17.954;2022-11-20T06:33:39;0;0;
43393;PMS5003;62479;62.642;17.954;2022-11-20T06:36:09;0;0;
43393;PMS5003;62479;62.642;17.954;2022-11-20T06:38:40;0;0;
43393;PMS5003;62479;62.642;17.954;2022-11-20T06:41:12;0;0;
43393;PMS5003;62479;62.642;17.954;2022-11-20T06:43:43;0;0;
43393;PMS5003;62479;62.642;17.954;2022-11-20T06:46:12;0;0;
43393;PMS5003;62479;62.642;17.954;2022-11-20T06:48:43;0;0;
43393;PMS5003;62479;62.642;17.954;2022-11-20T06:51:12;0;0;
43393;PMS5003;62479;62.642;17.954;2022-11-20T06:53:41;0;0;
43393;PMS5003;62479;62.642;17.954;2022-11-20T06:56:10;0;0;
43393;PMS5003;62479;62.642;17.954;2022-11-20T06:58:47;0;0;
43393;PMS5003;62479;62.642;17.954;2022-11-20T07:01:15;0;0;
43393;PMS5003;62479;62.642;17.954;2022-11-20T07:03:48;0;0;
43393;PMS5003;62479;62.642;17.954;2022-11-20T07:06:16;1;0;
43393;PMS5003;62479;62.642;17.954;2022-11-20T07:08:45;0;0;
43393;PMS5003;62479;62.642;17.954;2022-11-20T07:11:14;0;0;
43393;PMS5003;62479;62.642;17.954;2022-11-20T07:13:43;0;0;
43393;PMS5003;62479;62.642;17.954;2022-11-20T07:16:13;0;0;
43393;PMS5003;62479;62.642;17.954;2022-11-20T07:18:41;0;0;
43393;PMS5003;62479;62.642;17.954;2022-11-20T07:21:11;0;0;
43393;PMS5003;62479;62.642;17.954;2022-11-20T07:23:40;0;0;
43393;PMS5003;62479;62.642;17.954;2022-11-20T07:26:10;1;0;
43393;PMS5003;62479;62.642;17.954;2022-11-20T07:28:39;0;0;
43393;PMS5003;62479;62.642;17.954;2022-11-20T07:31:11;0;0;
43393;PMS5003;62479;62.642;17.954;2022-11-20T07:33:40;0;0;
43393;PMS5003;62479;62.642;17.954;2022-11-20T07:36:09;0;0;
43393;PMS5003;62479;62.642;17.954;2022-11-20T07:38:39;0;0;
43393;PMS5003;62479;62.642;17.954;2022-11-20T07:41:07;0;0;
43393;PMS5003;62479;62.642;17.954;2022-11-20T07:43:37;0;0;
43393;PMS5003;62479;62.642;17.954;2022-11-20T07:46:06;0;0;
43393;PMS5003;62479;62.642;17.954;2022-11-20T07:48:35;0;0;
43393;PMS5003;62479;62.642;17.954;2022-11-20T07:51:04;0;0;
43393;PMS5003;62479;62.642;17.954;2022-11-20T07:53:34;0;0;
43393;PMS5003;62479;62.642;17.954;2022-11-20T07:56:04;0;0;
43393;PMS5003;62479;62.642;17.954;2022-11-20T07:58:33;0;0;
43393;PMS5003;62479;62.642;17.954;2022-11-20T08:01:02;0;0;
43393;PMS5003;62479;62.642;17.954;2022-11-20T08:03:33;0;0;
43393;PMS5003;62479;62.642;17.954;2022-11-20T08:06:04;0;0;
43393;PMS5003;62479;62.642;17.954;2022-11-20T08:08:33;0;0;
43393;PMS5003;62479;62.642;17.954;2022-11-20T08:11:02;0;0;
43393;PMS5003;62479;62.642;17.954;2022-11-20T08:13:31;2;0;
43393;PMS5003;62479;62.642;17.954;2022-11-20T08:16:01;0;0;
43393;PMS5003;62479;62.642;17.954;2022-11-20T08:18:30;0;0;
43393;PMS5003;62479;62.642;17.954;2022-11-20T08:21:01;0;0;
43393;PMS5003;62479;62.642;17.954;2022-11-20T08:23:30;1;0;
43393;PMS5003;62479;62.642;17.954;2022-11-20T08:25:59;0;0;
43393;PMS5003;62479;62.642;17.954;2022-11-20T08:28:28;0;0;
43393;PMS5003;62479;62.642;17.954;2022-11-20T08:30:58;0;0;
43393;PMS5003;62479;62.642;17.954;2022-11-20T08:33:29;0;0;
43393;PMS5003;62479;62.642;17.954;2022-11-20T08:35:59;0;0;
43393;PMS5003;62479;62.642;17.954;2022-11-20T08:38:30;0;0;
43393;PMS5003;62479;62.642;17.954;2022-11-20T08:40:59;0;0;
43393;PMS5003;62479;62.642;17.954;2022-11-20T08:43:30;0;0;
43393;PMS5003;62479;62.642;17.954;2022-11-20T08:46:00;0;0;
43393;PMS5003;62479;62.642;17.954;2022-11-20T08:48:28;0;0;
43393;PMS5003;62479;62.642;17.954;2022-11-20T08:50:58;0;0;
43393;PMS5003;62479;62.642;17.954;2022-11-20T08:53:27;0;0;
43393;PMS5003;62479;62.642;17.954;2022-11-20T08:55:56;0;0;
43393;PMS5003;62479;62.642;17.954;2022-11-20T08:58:25;0;0;
43393;PMS5003;62479;62.642;17.954;2022-11-20T09:00:54;0;0;
43393;PMS5003;62479;62.642;17.954;2022-11-20T09:03:23;0;0;
43393;PMS5003;62479;62.642;17.954;2022-11-20T09:05:56;0;0;
43393;PMS5003;62479;62.642;17.954;2022-11-20T09:08:26;0;0;
43393;PMS5003;62479;62.642;17.954;2022-11-20T09:10:55;0;0;
43393;PMS5003;62479;62.642;17.954;2022-11-20T09:13:25;0;0;
43393;PMS5003;62479;62.642;17.954;2022-11-20T09:15:54;0;0;
43393;PMS5003;62479;62.642;17.954;2022-11-20T09:18:24;0;0;
43393;PMS5003;62479;62.642;17.954;2022-11-20T09:20:56;0;0;
43393;PMS5003;62479;62.642;17.954;2022-11-20T09:23:25;0;0;
43393;PMS5003;62479;62.642;17.954;2022-11-20T09:25:54;0;0;
43393;PMS5003;62479;62.642;17.954;2022-11-20T09:28:24;0;0;
43393;PMS5003;62479;62.642;17.954;2022-11-20T09:30:53;0;0;
43393;PMS5003;62479;62.642;17.954;2022-11-20T09:33:22;0;0;
43393;PMS5003;62479;62.642;17.954;2022-11-20T09:35:51;0;0;
43393;PMS5003;62479;62.642;17.954;2022-11-20T09:38:20;0;0;
43393;PMS5003;62479;62.642;17.954;2022-11-20T09:40:51;3;3;
43393;PMS5003;62479;62.642;17.954;2022-11-20T09:43:27;0;0;
43393;PMS5003;62479;62.642;17.954;2022-11-20T09:46:09;0;0;
43393;PMS5003;62479;62.642;17.954;2022-11-20T09:48:48;0;0;
43393;PMS5003;62479;62.642;17.954;2022-11-20T09:51:33;0;0;
43393;PMS5003;62479;62.642;17.954;2022-11-20T09:54:10;0;0;
43393;PMS5003;62479;62.642;17.954;2022-11-20T09:56:44;0;0;
43393;PMS5003;62479;62.642;17.954;2022-11-20T09:59:22;0;0;
43393;PMS5003;62479;62.642;17.954;2022-11-20T10:01:58;0;0;
43393;PMS5003;62479;62.642;17.954;2022-11-20T10:04:30;0;0;
43393;PMS5003;62479;62.642;17.954;2022-11-20T10:07:02;0;0;
43393;PMS5003;62479;62.642;17.954;2022-11-20T10:09:38;1;0;
43393;PMS5003;62479;62.642;17.954;2022-11-20T10:12:13;0;0;
43393;PMS5003;62479;62.642;17.954;2022-11-20T10:14:52;0;0;
43393;PMS5003;62479;62.642;17.954;2022-11-20T10:17:38;0;0;
43393;PMS5003;62479;62.642;17.954;2022-11-20T10:20:24;0;0;
43393;PMS5003;62479;62.642;17.954;2022-11-20T10:23:08;0;0;
43393;PMS5003;62479;62.642;17.954;2022-11-20T10:25:50;0;0;
43393;PMS5003;62479;62.642;17.954;2022-11-20T10:28:29;0;0;
43393;PMS5003;62479;62.642;17.954;2022-11-20T10:31:09;0;0;
43393;PMS5003;62479;62.642;17.954;2022-11-20T10:33:42;0;0;
43393;PMS5003;62479;62.642;17.954;2022-11-20T10:36:17;0;0;
43393;PMS5003;62479;62.642;17.954;2022-11-20T10:38:51;0;0;
43393;PMS5003;62479;62.642;17.954;2022-11-20T10:41:26;0;0;
43393;PMS5003;62479;62.642;17.954;2022-11-20T10:44:00;0;0;
43393;PMS5003;62479;62.642;17.954;2022-11-20T10:46:35;0;0;
43393;PMS5003;62479;62.642;17.954;2022-11-20T10:49:11;0;0;
43393;PMS5003;62479;62.642;17.954;2022-11-20T10:51:45;0;0;
43393;PMS5003;62479;62.642;17.954;2022-11-20T10:54:27;0;0;
43393;PMS5003;62479;62.642;17.954;2022-11-20T10:57:05;0;0;
43393;PMS5003;62479;62.642;17.954;2022-11-20T10:59:46;0;0;
43393;PMS5003;62479;62.642;17.954;2022-11-20T11:03:13;1;0;
43393;PMS5003;62479;62.642;17.954;2022-11-20T11:05:54;0;0;
43393;PMS5003;62479;62.642;17.954;2022-11-20T11:08:32;0;0;
43393;PMS5003;62479;62.642;17.954;2022-11-20T11:11:09;0;0;
43393;PMS5003;62479;62.642;17.954;2022-11-20T11:13:46;0;0;
43393;PMS5003;62479;62.642;17.954;2022-11-20T11:16:19;0;0;
43393;PMS5003;62479;62.642;17.954;2022-11-20T11:18:50;0;0;
43393;PMS5003;62479;62.642;17.954;2022-11-20T11:21:31;0;0;
43393;PMS5003;62479;62.642;17.954;2022-11-20T11:24:02;0;0;
43393;PMS5003;62479;62.642;17.954;2022-11-20T11:26:33;1;1;
43393;PMS5003;62479;62.642;17.954;2022-11-20T11:29:03;0;0;
43393;PMS5003;62479;62.642;17.954;2022-11-20T11:31:33;0;0;
43393;PMS5003;62479;62.642;17.954;2022-11-20T11:34:04;0;0;
43393;PMS5003;62479;62.642;17.954;2022-11-20T11:36:33;0;0;
43393;PMS5003;62479;62.642;17.954;2022-11-20T11:39:04;0;0;
43393;PMS5003;62479;62.642;17.954;2022-11-20T11:41:39;0;0;
43393;PMS5003;62479;62.642;17.954;2022-11-20T11:44:15;0;0;
43393;PMS5003;62479;62.642;17.954;2022-11-20T11:46:49;0;0;
43393;PMS5003;62479;62.642;17.954;2022-11-20T11:49:21;1;1;
43393;PMS5003;62479;62.642;17.954;2022-11-20T11:51:55;0;0;
43393;PMS5003;62479;62.642;17.954;2022-11-20T11:54:28;0;0;
43393;PMS5003;62479;62.642;17.954;2022-11-20T11:57:05;1;1;
43393;PMS5003;62479;62.642;17.954;2022-11-20T11:59:43;1;1;
43393;PMS5003;62479;62.642;17.954;2022-11-20T12:02:25;0;0;
43393;PMS5003;62479;62.642;17.954;2022-11-20T12:05:03;1;1;
43393;PMS5003;62479;62.642;17.954;2022-11-20T12:07:39;0;0;
43393;PMS5003;62479;62.642;17.954;2022-11-20T12:10:14;0;0;
43393;PMS5003;62479;62.642;17.954;2022-11-20T12:12:48;1;1;
43393;PMS5003;62479;62.642;17.954;2022-11-20T12:15:25;0;0;
43393;PMS5003;62479;62.642;17.954;2022-11-20T12:17:58;0;0;
43393;PMS5003;62479;62.642;17.954;2022-11-20T12:20:27;1;1;
43393;PMS5003;62479;62.642;17.954;2022-11-20T12:23:02;0;0;
43393;PMS5003;62479;62.642;17.954;2022-11-20T12:25:37;1;0;
43393;PMS5003;62479;62.642;17.954;2022-11-20T12:28:19;1;1;
43393;PMS5003;62479;62.642;17.954;2022-11-20T12:31:09;0;0;
43393;PMS5003;62479;62.642;17.954;2022-11-20T12:34:03;1;1;
43393;PMS5003;62479;62.642;17.954;2022-11-20T12:36:45;1;1;
43393;PMS5003;62479;62.642;17.954;2022-11-20T12:39:25;0;0;
43393;PMS5003;62479;62.642;17.954;2022-11-20T12:42:05;1;0;
43393;PMS5003;62479;62.642;17.954;2022-11-20T12:44:52;0;0;
43393;PMS5003;62479;62.642;17.954;2022-11-20T12:47:42;0;0;
43393;PMS5003;62479;62.642;17.954;2022-11-20T12:50:22;1;1;
43393;PMS5003;62479;62.642;17.954;2022-11-20T12:53:01;1;1;
43393;PMS5003;62479;62.642;17.954;2022-11-20T12:55:36;0;0;
43393;PMS5003;62479;62.642;17.954;2022-11-20T12:58:17;2;1;
43393;PMS5003;62479;62.642;17.954;2022-11-20T13:00:54;0;0;
43393;PMS5003;62479;62.642;17.954;2022-11-20T13:03:31;0;0;
43393;PMS5003;62479;62.642;17.954;2022-11-20T13:06:14;1;1;
43393;PMS5003;62479;62.642;17.954;2022-11-20T13:08:48;1;1;
43393;PMS5003;62479;62.642;17.954;2022-11-20T13:11:21;0;0;
43393;PMS5003;62479;62.642;17.954;2022-11-20T13:14:04;0;0;
43393;PMS5003;62479;62.642;17.954;2022-11-20T13:16:44;1;1;
43393;PMS5003;62479;62.642;17.954;2022-11-20T13:19:19;0;0;
43393;PMS5003;62479;62.642;17.954;2022-11-20T13:21:49;1;1;
43393;PMS5003;62479;62.642;17.954;2022-11-20T13:24:20;1;0;
43393;PMS5003;62479;62.642;17.954;2022-11-20T13:27:01;1;0;
43393;PMS5003;62479;62.642;17.954;2022-11-20T13:29:33;1;0;
43393;PMS5003;62479;62.642;17.954;2022-11-20T13:32:04;1;1;
43393;PMS5003;62479;62.642;17.954;2022-11-20T13:34:34;1;1;
43393;PMS5003;62479;62.642;17.954;2022-11-20T13:37:03;1;1;
43393;PMS5003;62479;62.642;17.954;2022-11-20T13:39:34;0;0;
43393;PMS5003;62479;62.642;17.954;2022-11-20T13:42:20;1;0;
43393;PMS5003;62479;62.642;17.954;2022-11-20T13:44:54;1;1;
43393;PMS5003;62479;62.642;17.954;2022-11-20T13:47:24;0;0;
43393;PMS5003;62479;62.642;17.954;2022-11-20T13:49:55;0;0;
43393;PMS5003;62479;62.642;17.954;2022-11-20T13:52:31;0;0;
43393;PMS5003;62479;62.642;17.954;2022-11-20T13:55:13;1;0;
43393;PMS5003;62479;62.642;17.954;2022-11-20T13:57:56;0;0;
43393;PMS5003;62479;62.642;17.954;2022-11-20T14:00:33;1;1;
43393;PMS5003;62479;62.642;17.954;2022-11-20T14:03:15;0;0;
43393;PMS5003;62479;62.642;17.954;2022-11-20T14:05:49;1;1;
43393;PMS5003;62479;62.642;17.954;2022-11-20T14:08:23;0;0;
43393;PMS5003;62479;62.642;17.954;2022-11-20T14:11:04;1;1;
43393;PMS5003;62479;62.642;17.954;2022-11-20T14:13:35;1;1;
43393;PMS5003;62479;62.642;17.954;2022-11-20T14:16:05;1;0;
43393;PMS5003;62479;62.642;17.954;2022-11-20T14:18:35;0;0;
43393;PMS5003;62479;62.642;17.954;2022-11-20T14:21:04;0;0;
43393;PMS5003;62479;62.642;17.954;2022-11-20T14:23:36;1;1;
43393;PMS5003;62479;62.642;17.954;2022-11-20T14:26:06;1;1;
43393;PMS5003;62479;62.642;17.954;2022-11-20T14:28:47;1;1;
43393;PMS5003;62479;62.642;17.954;2022-11-20T14:31:21;1;1;
43393;PMS5003;62479;62.642;17.954;2022-11-20T14:33:52;1;1;
43393;PMS5003;62479;62.642;17.954;2022-11-20T14:36:22;1;1;
43393;PMS5003;62479;62.642;17.954;2022-11-20T14:38:53;1;1;
43393;PMS5003;62479;62.642;17.954;2022-11-20T14:41:23;2;1;
43393;PMS5003;62479;62.642;17.954;2022-11-20T14:43:53;2;1;
43393;PMS5003;62479;62.642;17.954;2022-11-20T14:46:25;1;1;
43393;PMS5003;62479;62.642;17.954;2022-11-20T14:48:54;1;1;
43393;PMS5003;62479;62.642;17.954;2022-11-20T14:51:27;1;1;
43393;PMS5003;62479;62.642;17.954;2022-11-20T14:54:14;0;0;
43393;PMS5003;62479;62.642;17.954;2022-11-20T14:56:53;0;0;
43393;PMS5003;62479;62.642;17.954;2022-11-20T14:59:23;0;0;
43393;PMS5003;62479;62.642;17.954;2022-11-20T15:01:54;1;1;
43393;PMS5003;62479;62.642;17.954;2022-11-20T15:04:25;1;1;
43393;PMS5003;62479;62.642;17.954;2022-11-20T15:06:54;1;1;
43393;PMS5003;62479;62.642;17.954;2022-11-20T15:09:24;1;0;
43393;PMS5003;62479;62.642;17.954;2022-11-20T15:11:56;1;1;
43393;PMS5003;62479;62.642;17.954;2022-11-20T15:14:28;0;0;
43393;PMS5003;62479;62.642;17.954;2022-11-20T15:16:59;1;1;
43393;PMS5003;62479;62.642;17.954;2022-11-20T15:19:28;0;0;
43393;PMS5003;62479;62.642;17.954;2022-11-20T15:21:57;1;1;
43393;PMS5003;62479;62.642;17.954;2022-11-20T15:24:26;0;0;
43393;PMS5003;62479;62.642;17.954;2022-11-20T15:26:55;2;2;
43393;PMS5003;62479;62.642;17.954;2022-11-20T15:29:24;1;1;
43393;PMS5003;62479;62.642;17.954;2022-11-20T15:31:53;2;2;
43393;PMS5003;62479;62.642;17.954;2022-11-20T15:34:23;0;0;
43393;PMS5003;62479;62.642;17.954;2022-11-20T15:36:55;1;1;
43393;PMS5003;62479;62.642;17.954;2022-11-20T15:39:24;1;1;
43393;PMS5003;62479;62.642;17.954;2022-11-20T15:41:53;0;0;
43393;PMS5003;62479;62.642;17.954;2022-11-20T15:44:23;1;0;
43393;PMS5003;62479;62.642;17.954;2022-11-20T15:46:52;2;1;
43393;PMS5003;62479;62.642;17.954;2022-11-20T15:49:21;1;0;
43393;PMS5003;62479;62.642;17.954;2022-11-20T15:51:50;1;0;
43393;PMS5003;62479;62.642;17.954;2022-11-20T15:54:20;0;0;
43393;PMS5003;62479;62.642;17.954;2022-11-20T15:56:51;0;0;
43393;PMS5003;62479;62.642;17.954;2022-11-20T15:59:21;3;2;
43393;PMS5003;62479;62.642;17.954;2022-11-20T16:01:50;1;1;
43393;PMS5003;62479;62.642;17.954;2022-11-20T16:04:19;1;1;
43393;PMS5003;62479;62.642;17.954;2022-11-20T16:06:49;1;0;
43393;PMS5003;62479;62.642;17.954;2022-11-20T16:09:18;2;2;
43393;PMS5003;62479;62.642;17.954;2022-11-20T16:11:47;1;1;
43393;PMS5003;62479;62.642;17.954;2022-11-20T16:14:16;2;2;
43393;PMS5003;62479;62.642;17.954;2022-11-20T16:16:45;0;0;
43393;PMS5003;62479;62.642;17.954;2022-11-20T16:19:14;1;1;
43393;PMS5003;62479;62.642;17.954;2022-11-20T16:21:45;2;1;
43393;PMS5003;62479;62.642;17.954;2022-11-20T16:24:15;1;1;
43393;PMS5003;62479;62.642;17.954;2022-11-20T16:26:43;1;1;
43393;PMS5003;62479;62.642;17.954;2022-11-20T16:29:13;2;1;
43393;PMS5003;62479;62.642;17.954;2022-11-20T16:31:42;2;1;
43393;PMS5003;62479;62.642;17.954;2022-11-20T16:34:12;2;2;
43393;PMS5003;62479;62.642;17.954;2022-11-20T16:36:43;1;1;
43393;PMS5003;62479;62.642;17.954;2022-11-20T16:39:12;1;1;
43393;PMS5003;62479;62.642;17.954;2022-11-20T16:41:41;2;1;
43393;PMS5003;62479;62.642;17.954;2022-11-20T16:44:11;1;1;
43393;PMS5003;62479;62.642;17.954;2022-11-20T16:46:40;1;1;
43393;PMS5003;62479;62.642;17.954;2022-11-20T16:49:10;1;1;
43393;PMS5003;62479;62.642;17.954;2022-11-20T16:51:41;1;1;
43393;PMS5003;62479;62.642;17.954;2022-11-20T16:54:11;2;2;
43393;PMS5003;62479;62.642;17.954;2022-11-20T16:56:41;1;1;
43393;PMS5003;62479;62.642;17.954;2022-11-20T16:59:10;1;1;
43393;PMS5003;62479;62.642;17.954;2022-11-20T17:03:24;1;1;
43393;PMS5003;62479;62.642;17.954;2022-11-20T17:05:54;1;1;
43393;PMS5003;62479;62.642;17.954;2022-11-20T17:08:23;1;1;